createdAt,value
2017-09-05T00:01:02.634Z,1001.41
2017-09-05T00:02:12.345Z,1001.4
2017-09-05T00:03:22.684Z,1001.38
2017-09-05T00:04:32.705Z,1001.38
2017-09-05T00:05:43.154Z,1001.4
2017-09-05T00:06:56.830Z,1001.36
2017-09-05T00:08:07.180Z,1001.34
2017-09-05T00:09:19.745Z,1001.36
2017-09-05T00:10:29.773Z,1001.38
2017-09-05T00:11:41.594Z,1001.3
2017-09-05T00:12:51.954Z,1001.31
2017-09-05T00:14:03.258Z,1001.3
2017-09-05T00:15:13.613Z,1001.31
2017-09-05T00:16:25.762Z,1001.32
2017-09-05T00:17:36.099Z,1001.32
2017-09-05T00:18:46.448Z,1001.31
2017-09-05T00:19:56.807Z,1001.33
2017-09-05T00:21:07.226Z,1001.31
2017-09-05T00:22:18.227Z,1001.3
2017-09-05T00:23:28.556Z,1001.3
2017-09-05T00:24:38.894Z,1001.28
2017-09-05T00:25:49.245Z,1001.33
2017-09-05T00:26:59.580Z,1001.33
2017-09-05T00:28:09.625Z,1001.32
2017-09-05T00:29:20.017Z,1001.32
2017-09-05T00:30:31.505Z,1001.27
2017-09-05T00:31:41.838Z,1001.31
2017-09-05T00:32:52.183Z,1001.31
2017-09-05T00:34:03.581Z,1001.32
2017-09-05T00:35:15.025Z,1001.32
2017-09-05T00:36:25.373Z,1001.3
2017-09-05T00:37:35.711Z,1001.33
2017-09-05T00:38:47.483Z,1001.31
2017-09-05T00:39:57.823Z,1001.32
2017-09-05T00:41:08.154Z,1001.26
2017-09-05T00:42:18.189Z,1001.29
2017-09-05T00:43:28.544Z,1001.28
2017-09-05T00:44:38.575Z,1001.31
2017-09-05T00:45:50.207Z,1001.29
2017-09-05T00:47:00.695Z,1001.33
2017-09-05T00:48:10.721Z,1001.3
2017-09-05T00:49:20.438Z,1001.34
2017-09-05T00:50:30.784Z,1001.3
2017-09-05T00:51:42.109Z,1001.34
2017-09-05T00:52:52.474Z,1001.33
2017-09-05T00:54:02.821Z,1001.3
2017-09-05T00:55:12.837Z,1001.33
2017-09-05T00:56:23.203Z,1001.33
2017-09-05T00:57:33.547Z,1001.32
2017-09-05T00:58:43.884Z,1001.34
2017-09-05T00:59:54.223Z,1001.35
2017-09-05T01:01:03.941Z,1001.31
2017-09-05T01:02:14.273Z,1001.3
2017-09-05T01:03:24.629Z,1001.35
2017-09-05T01:04:35.005Z,1001.35
2017-09-05T01:05:46.190Z,1001.32
2017-09-05T01:06:57.285Z,1001.3
2017-09-05T01:08:08.437Z,1001.3
2017-09-05T01:09:18.467Z,1001.24
2017-09-05T01:10:28.801Z,1001.25
2017-09-05T01:11:39.782Z,1001.25
2017-09-05T01:12:51.398Z,1001.27
2017-09-05T01:14:06.293Z,1001.33
2017-09-05T01:15:18.828Z,1001.28
2017-09-05T01:16:33.223Z,1001.27
2017-09-05T01:17:44.147Z,1001.3
2017-09-05T01:18:57.309Z,1001.3
2017-09-05T01:20:07.010Z,1001.28
2017-09-05T01:21:19.467Z,1001.27
2017-09-05T01:22:29.855Z,1001.29
2017-09-05T01:23:40.195Z,1001.32
2017-09-05T01:24:51.636Z,1001.29
2017-09-05T01:26:03.078Z,1001.29
2017-09-05T01:27:13.426Z,1001.27
2017-09-05T01:28:23.547Z,1001.28
2017-09-05T01:29:33.884Z,1001.31
2017-09-05T01:30:44.211Z,1001.26
2017-09-05T01:31:54.222Z,1001.28
2017-09-05T01:33:04.569Z,1001.26
2017-09-05T01:34:14.942Z,1001.25
2017-09-05T01:35:25.286Z,1001.24
2017-09-05T01:36:36.265Z,1001.21
2017-09-05T01:37:47.191Z,1001.2
2017-09-05T01:38:57.528Z,1001.18
2017-09-05T01:40:07.887Z,1001.18
2017-09-05T01:41:18.237Z,1001.15
2017-09-05T01:42:30.774Z,1001.16
2017-09-05T01:43:43.922Z,1001.18
2017-09-05T01:44:55.987Z,1001.18
2017-09-05T01:46:08.733Z,1001.13
2017-09-05T01:47:19.066Z,1001.14
2017-09-05T01:48:29.418Z,1001.12
2017-09-05T01:49:40.214Z,1001.09
2017-09-05T01:50:50.602Z,1001.07
2017-09-05T01:52:07.240Z,1001.04
2017-09-05T01:53:17.586Z,1001.06
2017-09-05T01:54:28.745Z,1001.06
2017-09-05T01:55:40.473Z,1001.04
2017-09-05T01:56:51.959Z,1001.04
2017-09-05T01:58:02.307Z,1001.05
2017-09-05T01:59:12.644Z,1001.06
2017-09-05T02:00:22.365Z,1001
2017-09-05T02:01:32.767Z,1000.99
2017-09-05T02:02:43.252Z,1000.98
2017-09-05T02:03:53.592Z,1001.01
2017-09-05T02:05:05.897Z,1001
2017-09-05T02:06:18.518Z,1001.03
2017-09-05T02:07:28.886Z,1001.01
2017-09-05T02:08:41.320Z,1001.04
2017-09-05T02:09:57.474Z,1001.06
2017-09-05T02:11:10.122Z,1001.04
2017-09-05T02:12:20.168Z,1001.05
2017-09-05T02:13:30.504Z,1001.07
2017-09-05T02:14:40.858Z,1001.05
2017-09-05T02:15:51.183Z,1001.02
2017-09-05T02:17:03.238Z,1001.09
2017-09-05T02:18:13.631Z,1001.06
2017-09-05T02:19:26.165Z,1001.06
2017-09-05T02:20:36.186Z,1001.06
2017-09-05T02:21:47.372Z,1001.04
2017-09-05T02:22:57.700Z,1001
2017-09-05T02:24:09.428Z,1000.98
2017-09-05T02:25:19.443Z,1000.96
2017-09-05T02:26:29.467Z,1000.95
2017-09-05T02:27:39.487Z,1000.97
2017-09-05T02:28:51.859Z,1000.97
2017-09-05T02:30:04.699Z,1000.94
2017-09-05T02:31:16.893Z,1000.99
2017-09-05T02:32:27.245Z,1001.03
2017-09-05T02:33:37.590Z,1000.98
2017-09-05T02:34:49.914Z,1000.91
2017-09-05T02:36:01.666Z,1000.95
2017-09-05T02:37:13.152Z,1000.93
2017-09-05T02:38:23.493Z,1000.91
2017-09-05T02:39:33.837Z,1000.95
2017-09-05T02:40:44.181Z,1000.92
2017-09-05T02:41:54.573Z,1000.93
2017-09-05T02:43:04.276Z,1000.98
2017-09-05T02:44:17.320Z,1000.99
2017-09-05T02:45:27.028Z,1000.99
2017-09-05T02:46:37.356Z,1001.02
2017-09-05T02:47:47.108Z,1001.04
2017-09-05T02:48:57.587Z,1001.05
2017-09-05T02:50:08.489Z,1000.98
2017-09-05T02:51:18.678Z,1001
2017-09-05T02:52:28.713Z,1000.97
2017-09-05T02:53:39.127Z,1001
2017-09-05T02:54:49.464Z,1000.98
2017-09-05T02:56:02.064Z,1000.98
2017-09-05T02:57:12.097Z,1001.01
2017-09-05T02:58:22.436Z,1001.07
2017-09-05T02:59:31.889Z,1001.03
2017-09-05T03:00:41.918Z,1001.02
2017-09-05T03:01:51.944Z,1001.02
2017-09-05T03:33:36.836Z,1001.13
2017-09-05T03:34:47.210Z,1001.14
2017-09-05T03:35:57.535Z,1001.22
2017-09-05T03:37:07.886Z,1001.2
2017-09-05T03:38:17.898Z,1001.2
2017-09-05T03:39:28.278Z,1001.24
2017-09-05T03:40:38.300Z,1001.23
2017-09-05T03:41:48.640Z,1001.22
2017-09-05T03:42:58.979Z,1001.16
2017-09-05T03:44:09.314Z,1001.21
2017-09-05T03:45:21.479Z,1001.22
2017-09-05T03:46:31.506Z,1001.2
2017-09-05T03:47:41.841Z,1001.23
2017-09-05T03:48:51.861Z,1001.22
2017-09-05T03:50:02.197Z,1001.24
2017-09-05T03:51:12.604Z,1001.24
2017-09-05T03:52:22.924Z,1001.23
2017-09-05T03:53:33.283Z,1001.26
2017-09-05T03:54:43.625Z,1001.21
2017-09-05T03:55:53.666Z,1001.25
2017-09-05T03:57:04.066Z,1001.23
2017-09-05T03:58:14.404Z,1001.26
2017-09-05T03:59:24.741Z,1001.24
2017-09-05T04:00:35.083Z,1001.26
2017-09-05T04:01:45.407Z,1001.27
2017-09-05T04:02:55.130Z,1001.32
2017-09-05T04:04:05.453Z,1001.32
2017-09-05T04:05:15.505Z,1001.35
2017-09-05T04:06:25.839Z,1001.36
2017-09-05T04:07:36.187Z,1001.41
2017-09-05T04:08:46.203Z,1001.42
2017-09-05T04:09:56.547Z,1001.4
2017-09-05T04:11:06.914Z,1001.41
2017-09-05T04:12:17.260Z,1001.42
2017-09-05T04:13:27.597Z,1001.45
2017-09-05T04:14:40.559Z,1001.46
2017-09-05T04:15:50.896Z,1001.46
2017-09-05T04:17:01.236Z,1001.47
2017-09-05T04:18:11.472Z,1001.46
2017-09-05T04:19:21.804Z,1001.45
2017-09-05T04:20:32.207Z,1001.5
2017-09-05T04:21:42.225Z,1001.48
2017-09-05T04:22:52.251Z,1001.46
2017-09-05T04:24:02.267Z,1001.48
2017-09-05T04:25:12.316Z,1001.53
2017-09-05T04:26:22.656Z,1001.53
2017-09-05T04:27:32.673Z,1001.52
2017-09-05T04:28:43.035Z,1001.54
2017-09-05T04:29:53.373Z,1001.54
2017-09-05T04:31:03.078Z,1001.57
2017-09-05T04:32:13.468Z,1001.58
2017-09-05T04:33:23.817Z,1001.65
2017-09-05T04:34:33.838Z,1001.66
2017-09-05T04:35:44.199Z,1001.71
2017-09-05T04:36:54.557Z,1001.7
2017-09-05T04:38:04.907Z,1001.65
2017-09-05T04:39:14.937Z,1001.69
2017-09-05T04:40:25.309Z,1001.71
2017-09-05T04:41:35.657Z,1001.77
2017-09-05T04:42:46.019Z,1001.76
2017-09-05T04:43:56.100Z,1001.75
2017-09-05T04:45:08.601Z,1001.76
2017-09-05T04:46:19.148Z,1001.82
2017-09-05T04:47:29.503Z,1001.85
2017-09-05T04:48:39.854Z,1002.09
2017-09-05T04:49:50.267Z,1002.21
2017-09-05T04:51:00.632Z,1002.12
2017-09-05T04:52:11.000Z,1002.1
2017-09-05T04:53:21.346Z,1002.09
2017-09-05T04:54:31.718Z,1002.12
2017-09-05T04:55:41.747Z,1002.15
2017-09-05T04:56:52.086Z,1002.06
2017-09-05T04:58:02.439Z,1002
2017-09-05T04:59:12.780Z,1001.97
2017-09-05T05:00:23.130Z,1001.96
2017-09-05T05:01:33.510Z,1002.03
2017-09-05T05:02:43.880Z,1002.1
2017-09-05T05:03:54.232Z,1002.04
2017-09-05T05:05:04.574Z,1001.95
2017-09-05T05:06:16.483Z,1001.92
2017-09-05T05:07:26.578Z,1001.9
2017-09-05T05:08:36.297Z,1001.98
2017-09-05T05:09:46.006Z,1001.95
2017-09-05T05:10:56.365Z,1001.92
2017-09-05T05:12:06.713Z,1001.91
2017-09-05T05:13:17.077Z,1001.93
2017-09-05T05:14:27.110Z,1001.86
2017-09-05T05:15:37.472Z,1001.85
2017-09-05T05:16:47.820Z,1001.86
2017-09-05T05:17:58.179Z,1001.92
2017-09-05T05:19:08.509Z,1001.91
2017-09-05T05:20:18.872Z,1001.93
2017-09-05T05:21:29.224Z,1001.9
2017-09-05T05:22:39.560Z,1001.91
2017-09-05T05:23:49.900Z,1001.94
2017-09-05T05:25:00.253Z,1001.89
2017-09-05T05:26:10.621Z,1001.91
2017-09-05T05:27:20.978Z,1001.93
2017-09-05T05:28:31.320Z,1001.92
2017-09-05T05:29:41.662Z,1001.93
2017-09-05T05:30:52.010Z,1001.94
2017-09-05T05:32:02.388Z,1001.92
2017-09-05T05:33:12.420Z,1001.96
2017-09-05T05:34:22.775Z,1001.93
2017-09-05T05:35:33.106Z,1002
2017-09-05T05:36:43.441Z,1001.99
2017-09-05T05:37:53.829Z,1001.92
2017-09-05T05:39:04.186Z,1001.94
2017-09-05T05:40:14.545Z,1001.95
2017-09-05T05:41:24.555Z,1001.95
2017-09-05T05:42:34.896Z,1001.93
2017-09-05T05:43:44.599Z,1001.94
2017-09-05T05:44:54.934Z,1001.92
2017-09-05T05:46:05.282Z,1001.93
2017-09-05T05:47:15.294Z,1001.97
2017-09-05T05:48:25.637Z,1001.99
2017-09-05T05:49:36.008Z,1001.99
2017-09-05T05:50:46.034Z,1001.98
2017-09-05T05:51:56.106Z,1001.97
2017-09-05T05:53:05.852Z,1001.98
2017-09-05T05:54:16.204Z,1001.95
2017-09-05T05:55:26.566Z,1001.97
2017-09-05T05:56:36.938Z,1001.96
2017-09-05T05:57:48.085Z,1001.98
2017-09-05T05:58:58.425Z,1001.97
2017-09-05T06:00:08.791Z,1002
2017-09-05T06:01:19.135Z,1002.01
2017-09-05T06:02:29.496Z,1002.01
2017-09-05T06:03:40.954Z,1002.02
2017-09-05T06:04:51.309Z,1002.03
2017-09-05T06:06:01.335Z,1002.04
2017-09-05T06:07:14.451Z,1002.01
2017-09-05T06:08:24.797Z,1002.01
2017-09-05T06:09:34.877Z,1002.05
2017-09-05T06:10:44.910Z,1001.97
2017-09-05T06:11:57.817Z,1001.95
2017-09-05T06:13:08.174Z,1001.97
2017-09-05T06:14:18.536Z,1001.96
2017-09-05T06:15:28.896Z,1001.96
2017-09-05T06:16:39.250Z,1001.98
2017-09-05T06:17:49.590Z,1001.99
2017-09-05T06:18:59.940Z,1001.92
2017-09-05T06:20:10.290Z,1001.98
2017-09-05T06:21:20.394Z,1001.94
2017-09-05T06:22:30.755Z,1001.95
2017-09-05T06:23:41.106Z,1001.9
2017-09-05T06:24:50.811Z,1001.88
2017-09-05T06:26:01.150Z,1001.93
2017-09-05T06:27:11.540Z,1001.89
2017-09-05T06:28:22.635Z,1001.86
2017-09-05T06:29:32.675Z,1001.89
2017-09-05T06:30:43.033Z,1001.92
2017-09-05T06:31:53.070Z,1001.92
2017-09-05T06:33:03.088Z,1001.94
2017-09-05T06:34:13.457Z,1001.92
2017-09-05T06:35:23.807Z,1001.88
2017-09-05T06:36:34.163Z,1001.91
2017-09-05T06:37:44.208Z,1001.92
2017-09-05T06:38:54.622Z,1001.89
2017-09-05T06:40:04.659Z,1001.9
2017-09-05T06:41:15.016Z,1001.91
2017-09-05T06:42:25.045Z,1001.94
2017-09-05T06:43:35.409Z,1001.9
2017-09-05T06:44:45.451Z,1001.91
2017-09-05T06:45:55.824Z,1001.88
2017-09-05T06:47:05.554Z,1001.91
2017-09-05T06:48:15.595Z,1001.89
2017-09-05T06:49:25.945Z,1001.9
2017-09-05T06:50:35.697Z,1001.85
2017-09-05T06:51:46.040Z,1001.9
2017-09-05T06:52:56.399Z,1001.92
2017-09-05T06:54:06.735Z,1001.93
2017-09-05T06:55:16.759Z,1001.93
2017-09-05T06:56:26.834Z,1001.96
2017-09-05T06:57:37.179Z,1001.9
2017-09-05T06:58:46.911Z,1001.94
2017-09-05T06:59:56.954Z,1001.95
2017-09-05T07:01:07.308Z,1001.97
2017-09-05T07:02:17.348Z,1001.96
2017-09-05T07:03:27.384Z,1001.95
2017-09-05T07:04:37.414Z,1001.91
2017-09-05T07:05:47.757Z,1002
2017-09-05T07:06:58.133Z,1001.98
2017-09-05T07:08:08.532Z,1002
2017-09-05T07:09:18.868Z,1002.03
2017-09-05T07:10:29.219Z,1002.06
2017-09-05T07:11:39.253Z,1002.03
2017-09-05T07:12:49.608Z,1002.03
2017-09-05T07:14:00.014Z,1002
2017-09-05T07:15:10.387Z,1002.01
2017-09-05T07:16:20.744Z,1002.01
2017-09-05T07:17:31.089Z,1001.97
2017-09-05T07:18:41.444Z,1001.95
2017-09-05T07:19:51.779Z,1001.95
2017-09-05T07:21:02.135Z,1001.94
2017-09-05T07:22:12.475Z,1001.97
2017-09-05T07:23:21.873Z,1001.99
2017-09-05T07:24:32.232Z,1001.99
2017-09-05T07:25:42.313Z,1002.02
2017-09-05T07:26:52.644Z,1002.01
2017-09-05T07:28:02.715Z,1002.08
2017-09-05T07:29:13.055Z,1002.05
2017-09-05T07:30:22.782Z,1002.07
2017-09-05T07:31:32.874Z,1002.06
2017-09-05T07:32:43.212Z,1002.06
2017-09-05T07:33:53.571Z,1002.09
2017-09-05T07:35:03.951Z,1002.06
2017-09-05T07:36:14.323Z,1002.12
2017-09-05T07:37:24.816Z,1002.14
2017-09-05T07:38:34.839Z,1002.13
2017-09-05T07:39:45.185Z,1002.18
2017-09-05T07:40:55.540Z,1002.19
2017-09-05T07:42:05.272Z,1002.2
2017-09-05T07:43:15.655Z,1002.28
2017-09-05T07:44:25.698Z,1002.28
2017-09-05T07:45:36.081Z,1002.28
2017-09-05T07:46:46.565Z,1002.29
2017-09-05T07:47:58.867Z,1002.32
2017-09-05T07:49:09.167Z,1002.36
2017-09-05T07:50:19.207Z,1002.34
2017-09-05T07:51:29.242Z,1002.37
2017-09-05T07:52:39.587Z,1002.38
2017-09-05T07:53:49.609Z,1002.35
2017-09-05T07:55:00.244Z,1002.38
2017-09-05T07:56:10.629Z,1002.41
2017-09-05T07:57:20.986Z,1002.37
2017-09-05T07:58:31.338Z,1002.39
2017-09-05T07:59:42.061Z,1002.35
2017-09-05T08:00:52.157Z,1002.36
2017-09-05T08:02:02.508Z,1002.36
2017-09-05T08:03:12.210Z,1002.33
2017-09-05T08:04:22.545Z,1002.41
2017-09-05T08:05:32.579Z,1002.33
2017-09-05T08:06:42.664Z,1002.29
2017-09-05T08:07:53.003Z,1002.3
2017-09-05T08:09:03.358Z,1002.31
2017-09-05T08:10:13.417Z,1002.33
2017-09-05T08:11:23.785Z,1002.36
2017-09-05T08:12:33.502Z,1002.41
2017-09-05T08:13:43.865Z,1002.37
2017-09-05T08:14:53.884Z,1002.44
2017-09-05T08:16:03.920Z,1002.38
2017-09-05T08:17:14.268Z,1002.45
2017-09-05T08:18:24.612Z,1002.36
2017-09-05T08:19:34.658Z,1002.36
2017-09-05T08:20:45.047Z,1002.37
2017-09-05T08:21:55.077Z,1002.38
2017-09-05T08:23:05.418Z,1002.35
2017-09-05T08:24:15.850Z,1002.35
2017-09-05T08:25:26.196Z,1002.4
2017-09-05T08:26:36.554Z,1002.36
2017-09-05T08:27:47.139Z,1002.4
2017-09-05T08:28:57.509Z,1002.35
2017-09-05T08:30:07.600Z,1002.33
2017-09-05T08:31:17.983Z,1002.3
2017-09-05T08:32:28.073Z,1002.33
2017-09-05T08:33:38.111Z,1002.34
2017-09-05T08:34:48.149Z,1002.36
2017-09-05T08:35:58.891Z,1002.36
2017-09-05T08:37:09.259Z,1002.33
2017-09-05T08:38:19.608Z,1002.37
2017-09-05T08:39:29.973Z,1002.41
2017-09-05T08:40:40.021Z,1002.43
2017-09-05T08:41:50.137Z,1002.39
2017-09-05T08:43:00.509Z,1002.38
2017-09-05T08:44:10.550Z,1002.44
2017-09-05T08:45:21.460Z,1002.43
2017-09-05T08:46:31.838Z,1002.39
2017-09-05T08:47:42.271Z,1002.39
2017-09-05T08:48:52.642Z,1002.39
2017-09-05T08:50:02.368Z,1002.36
2017-09-05T08:51:12.722Z,1002.33
2017-09-05T08:52:22.791Z,1002.31
2017-09-05T08:53:33.211Z,1002.32
2017-09-05T08:54:43.591Z,1002.34
2017-09-05T08:55:56.608Z,1002.36
2017-09-05T08:57:10.513Z,1002.37
2017-09-05T08:58:20.873Z,1002.31
2017-09-05T08:59:31.901Z,1002.29
2017-09-05T09:00:42.266Z,1002.29
2017-09-05T09:01:52.317Z,1002.28
2017-09-05T09:03:02.344Z,1002.24
2017-09-05T09:04:12.715Z,1002.23
2017-09-05T09:05:22.817Z,1002.28
2017-09-05T09:06:35.354Z,1002.28
2017-09-05T09:07:45.418Z,1002.25
2017-09-05T09:08:55.777Z,1002.24
2017-09-05T09:10:06.133Z,1002.18
2017-09-05T09:11:16.272Z,1002.21
2017-09-05T09:12:26.651Z,1002.19
2017-09-05T09:13:36.710Z,1002.21
2017-09-05T09:14:47.065Z,1002.16
2017-09-05T09:15:57.439Z,1002.13
2017-09-05T09:17:07.547Z,1002.11
2017-09-05T09:18:19.828Z,1002.18
2017-09-05T09:19:29.887Z,1002.16
2017-09-05T09:20:40.266Z,1002.15
2017-09-05T09:21:50.303Z,1002.17
2017-09-05T09:23:00.826Z,1002.14
2017-09-05T09:24:11.177Z,1002.13
2017-09-05T09:25:21.768Z,1002.1
2017-09-05T09:26:32.134Z,1002.05
2017-09-05T09:27:42.180Z,1002.14
2017-09-05T09:28:52.269Z,1002.13
2017-09-05T09:30:02.306Z,1002.05
2017-09-05T09:31:12.357Z,1002.01
2017-09-05T09:32:22.701Z,1001.96
2017-09-05T09:33:32.766Z,1002.03
2017-09-05T09:34:43.159Z,1002.02
2017-09-05T09:35:53.773Z,1001.97
2017-09-05T09:37:04.153Z,1001.97
2017-09-05T09:38:14.532Z,1001.92
2017-09-05T09:39:24.900Z,1001.92
2017-09-05T09:40:34.998Z,1001.92
2017-09-05T09:41:45.351Z,1001.92
2017-09-05T09:42:55.729Z,1001.91
2017-09-05T09:44:06.094Z,1001.86
2017-09-05T09:45:16.451Z,1001.83
2017-09-05T09:46:26.867Z,1001.86
2017-09-05T09:47:37.235Z,1001.88
2017-09-05T09:48:47.595Z,1001.87
2017-09-05T09:49:57.961Z,1001.83
2017-09-05T09:51:08.318Z,1001.82
2017-09-05T09:52:18.737Z,1001.77
2017-09-05T09:53:28.778Z,1001.76
2017-09-05T09:54:38.823Z,1001.73
2017-09-05T09:55:49.190Z,1001.77
2017-09-05T09:56:59.550Z,1001.77
2017-09-05T09:58:09.994Z,1001.73
2017-09-05T09:59:20.373Z,1001.78
2017-09-05T10:00:30.740Z,1001.76
2017-09-05T10:01:41.100Z,1001.72
2017-09-05T10:02:51.471Z,1001.75
2017-09-05T10:04:01.888Z,1001.69
2017-09-05T10:05:11.941Z,1001.69
2017-09-05T10:06:22.304Z,1001.71
2017-09-05T10:07:32.675Z,1001.66
2017-09-05T10:08:42.724Z,1001.7
2017-09-05T10:09:53.154Z,1001.65
2017-09-05T10:11:03.519Z,1001.6
2017-09-05T10:12:13.891Z,1001.63
2017-09-05T10:13:23.617Z,1001.62
2017-09-05T10:14:34.001Z,1001.61
2017-09-05T10:15:44.518Z,1001.6
2017-09-05T10:16:54.905Z,1001.63
2017-09-05T10:18:05.270Z,1001.71
2017-09-05T10:19:15.318Z,1001.62
2017-09-05T10:20:26.190Z,1001.61
2017-09-05T10:21:36.307Z,1001.59
2017-09-05T10:22:46.698Z,1001.54
2017-09-05T10:23:57.086Z,1001.5
2017-09-05T10:25:07.116Z,1001.53
2017-09-05T10:26:17.510Z,1001.56
2017-09-05T10:27:28.137Z,1001.56
2017-09-05T10:28:38.498Z,1001.44
2017-09-05T10:29:48.852Z,1001.49
2017-09-05T10:30:59.461Z,1001.5
2017-09-05T10:32:09.840Z,1001.49
2017-09-05T10:33:20.257Z,1001.43
2017-09-05T10:34:30.624Z,1001.42
2017-09-05T10:35:40.989Z,1001.39
2017-09-05T10:36:52.405Z,1001.42
2017-09-05T10:38:02.757Z,1001.46
2017-09-05T10:39:13.184Z,1001.4
2017-09-05T10:40:22.916Z,1001.42
2017-09-05T10:41:33.288Z,1001.33
2017-09-05T10:42:43.633Z,1001.41
2017-09-05T10:43:54.004Z,1001.37
2017-09-05T10:45:04.094Z,1001.38
2017-09-05T10:46:14.462Z,1001.35
2017-09-05T10:47:24.829Z,1001.32
2017-09-05T10:48:35.193Z,1001.29
2017-09-05T10:49:45.548Z,1001.37
2017-09-05T10:50:55.957Z,1001.37
2017-09-05T10:52:06.008Z,1001.29
2017-09-05T10:53:16.384Z,1001.26
2017-09-05T10:54:26.743Z,1001.2
2017-09-05T10:55:36.797Z,1001.25
2017-09-05T10:56:46.852Z,1001.19
2017-09-05T10:57:57.237Z,1001.19
2017-09-05T10:59:07.622Z,1001.2
2017-09-05T11:00:17.989Z,1001.2
2017-09-05T11:01:28.352Z,1001.31
2017-09-05T11:02:38.754Z,1001.22
2017-09-05T11:03:49.135Z,1001.27
2017-09-05T11:04:59.198Z,1001.2
2017-09-05T11:06:08.924Z,1001.17
2017-09-05T11:07:18.981Z,1001.14
2017-09-05T11:08:29.405Z,1001.16
2017-09-05T11:09:39.753Z,1001.09
2017-09-05T11:10:50.127Z,1001.15
2017-09-05T11:12:00.174Z,1001.17
2017-09-05T11:13:15.796Z,1001.13
2017-09-05T11:14:26.283Z,1001.12
2017-09-05T11:15:36.320Z,1001.13
2017-09-05T11:16:46.677Z,1001.11
2017-09-05T11:17:56.704Z,1001.14
2017-09-05T11:19:07.062Z,1001.15
2017-09-05T11:20:22.122Z,1001.1
2017-09-05T11:21:32.487Z,1001.18
2017-09-05T11:22:42.856Z,1001.1
2017-09-05T11:23:53.220Z,1001.12
2017-09-05T11:25:04.239Z,1001.15
2017-09-05T11:26:14.607Z,1001
2017-09-05T11:27:24.977Z,1000.97
2017-09-05T11:28:35.339Z,1001
2017-09-05T11:29:45.399Z,1000.9
2017-09-05T11:31:02.168Z,1000.9
2017-09-05T11:32:12.875Z,1000.86
2017-09-05T11:33:22.598Z,1000.85
2017-09-05T11:34:32.636Z,1000.85
2017-09-05T11:35:42.996Z,1000.9
2017-09-05T11:36:54.774Z,1000.88
2017-09-05T11:38:07.296Z,1000.87
2017-09-05T11:39:17.675Z,1000.87
2017-09-05T11:40:27.715Z,1000.81
2017-09-05T11:41:38.076Z,1000.79
2017-09-05T11:42:47.820Z,1000.86
2017-09-05T11:43:58.233Z,1000.84
2017-09-05T11:45:10.430Z,1000.84
2017-09-05T11:46:20.791Z,1000.85
2017-09-05T11:47:30.860Z,1000.84
2017-09-05T11:48:40.886Z,1000.82
2017-09-05T11:49:51.302Z,1000.85
2017-09-05T11:51:01.872Z,1000.77
2017-09-05T11:52:12.258Z,1000.72
2017-09-05T11:53:22.624Z,1000.73
2017-09-05T11:54:33.011Z,1000.68
2017-09-05T11:55:43.428Z,1000.68
2017-09-05T11:56:53.469Z,1000.64
2017-09-05T11:58:03.533Z,1000.71
2017-09-05T11:59:13.897Z,1000.64
2017-09-05T12:00:23.953Z,1000.73
2017-09-05T12:01:34.515Z,1000.73
2017-09-05T12:02:44.888Z,1000.69
2017-09-05T12:03:54.642Z,1000.63
2017-09-05T12:05:05.002Z,1000.62
2017-09-05T12:06:14.727Z,1000.63
2017-09-05T12:07:25.127Z,1000.74
2017-09-05T12:08:35.190Z,1000.59
2017-09-05T12:09:45.577Z,1000.6
2017-09-05T12:10:56.159Z,1000.62
2017-09-05T12:12:06.517Z,1000.53
2017-09-05T12:13:16.965Z,1000.48
2017-09-05T12:14:27.326Z,1000.47
2017-09-05T12:15:37.685Z,1000.45
2017-09-05T12:16:48.055Z,1000.49
2017-09-05T12:17:58.427Z,1000.4
2017-09-05T12:19:08.791Z,1000.42
2017-09-05T12:20:18.845Z,1000.41
2017-09-05T12:21:32.491Z,1000.43
2017-09-05T12:22:42.854Z,1000.34
2017-09-05T12:23:53.222Z,1000.31
2017-09-05T12:25:03.647Z,1000.35
2017-09-05T12:26:13.997Z,1000.36
2017-09-05T12:27:23.720Z,1000.32
2017-09-05T12:28:34.103Z,1000.3
2017-09-05T12:29:44.469Z,1000.3
2017-09-05T12:30:54.939Z,1000.3
2017-09-05T12:32:05.299Z,1000.28
2017-09-05T12:33:15.379Z,1000.34
2017-09-05T12:34:25.434Z,1000.33
2017-09-05T12:35:35.782Z,1000.33
2017-09-05T12:36:46.175Z,1000.24
2017-09-05T12:37:56.536Z,1000.31
2017-09-05T12:39:06.902Z,1000.24
2017-09-05T12:40:16.641Z,1000.24
2017-09-05T12:41:26.999Z,1000.25
2017-09-05T12:42:37.415Z,1000.2
2017-09-05T12:43:47.774Z,1000.16
2017-09-05T12:44:57.515Z,1000.22
2017-09-05T12:46:07.888Z,1000.18
2017-09-05T12:47:18.259Z,1000.12
2017-09-05T12:48:28.354Z,1000.13
2017-09-05T12:49:38.402Z,1000.14
2017-09-05T12:50:48.762Z,1000.17
2017-09-05T12:51:58.801Z,1000.17
2017-09-05T12:53:09.160Z,1000.16
2017-09-05T12:54:19.579Z,1000.16
2017-09-05T12:55:30.156Z,1000.18
2017-09-05T12:56:42.977Z,1000.22
2017-09-05T12:57:53.025Z,1000.11
2017-09-05T12:59:03.389Z,1000.13
2017-09-05T13:00:13.810Z,1000.1
2017-09-05T13:01:24.178Z,1000.13
2017-09-05T13:02:34.547Z,1000.07
2017-09-05T13:03:44.902Z,1000.04
2017-09-05T13:04:55.947Z,1000.08
2017-09-05T13:06:06.010Z,1000.06
2017-09-05T13:07:16.288Z,999.97
2017-09-05T13:08:26.718Z,999.91
2017-09-05T13:09:37.088Z,999.97
2017-09-05T13:10:47.479Z,999.88
2017-09-05T13:11:57.851Z,999.93
2017-09-05T13:13:07.955Z,999.91
2017-09-05T13:14:18.323Z,999.9
2017-09-05T13:15:29.512Z,999.96
2017-09-05T13:16:39.881Z,999.89
2017-09-05T13:17:50.259Z,999.9
2017-09-05T13:19:00.619Z,999.85
2017-09-05T13:20:11.009Z,999.89
2017-09-05T13:21:21.374Z,999.82
2017-09-05T13:22:31.398Z,999.8
2017-09-05T13:23:41.761Z,999.79
2017-09-05T13:24:52.198Z,999.83
2017-09-05T13:26:02.249Z,999.8
2017-09-05T13:27:12.281Z,999.8
2017-09-05T13:28:22.651Z,999.76
2017-09-05T13:29:32.725Z,999.75
2017-09-05T13:30:43.159Z,999.72
2017-09-05T13:31:53.202Z,999.7
2017-09-05T13:33:03.239Z,999.7
2017-09-05T13:34:13.626Z,999.66
2017-09-05T13:35:26.361Z,999.61
2017-09-05T13:36:37.235Z,999.61
2017-09-05T13:37:47.304Z,999.58
2017-09-05T13:38:57.677Z,999.57
2017-09-05T13:40:07.720Z,999.59
2017-09-05T13:41:18.083Z,999.57
2017-09-05T13:42:28.526Z,999.55
2017-09-05T13:43:38.891Z,999.6
2017-09-05T13:44:49.233Z,999.53
2017-09-05T13:45:59.605Z,999.54
2017-09-05T13:47:16.726Z,999.52
2017-09-05T13:48:30.846Z,999.53
2017-09-05T13:49:40.886Z,999.47
2017-09-05T13:50:51.276Z,999.44
2017-09-05T13:52:01.655Z,999.46
2017-09-05T13:53:11.764Z,999.43
2017-09-05T13:54:22.147Z,999.35
2017-09-05T13:55:32.522Z,999.45
2017-09-05T13:56:42.890Z,999.39
2017-09-05T13:57:54.602Z,999.37
2017-09-05T13:59:04.643Z,999.41
2017-09-05T14:00:14.679Z,999.44
2017-09-05T14:01:25.069Z,999.42
2017-09-05T14:02:35.409Z,999.39
2017-09-05T14:03:45.440Z,999.36
2017-09-05T14:04:55.887Z,999.42
2017-09-05T14:06:06.261Z,999.42
2017-09-05T14:07:17.676Z,999.38
2017-09-05T14:08:28.038Z,999.43
2017-09-05T14:09:38.098Z,999.35
2017-09-05T14:10:48.525Z,999.43
2017-09-05T14:11:58.882Z,999.42
2017-09-05T14:13:09.247Z,999.36
2017-09-05T14:14:19.625Z,999.37
2017-09-05T14:15:29.993Z,999.34
2017-09-05T14:16:40.405Z,999.37
2017-09-05T14:17:50.742Z,999.37
2017-09-05T14:19:01.140Z,999.34
2017-09-05T14:20:11.505Z,999.36
2017-09-05T14:21:21.546Z,999.31
2017-09-05T14:22:31.977Z,999.36
2017-09-05T14:23:42.329Z,999.34
2017-09-05T14:24:52.695Z,999.35
2017-09-05T14:26:03.041Z,999.34
2017-09-05T14:27:13.417Z,999.36
2017-09-05T14:28:23.518Z,999.31
2017-09-05T14:29:33.255Z,999.29
2017-09-05T14:30:43.623Z,999.33
2017-09-05T14:31:54.004Z,999.34
2017-09-05T14:33:04.361Z,999.31
2017-09-05T14:34:14.453Z,999.39
2017-09-05T14:35:24.823Z,999.38
2017-09-05T14:36:35.191Z,999.38
2017-09-05T14:37:46.534Z,999.32
2017-09-05T14:38:56.905Z,999.38
2017-09-05T14:40:07.268Z,999.32
2017-09-05T14:41:17.635Z,999.31
2017-09-05T14:42:27.765Z,999.34
2017-09-05T14:43:38.116Z,999.39
2017-09-05T14:44:48.468Z,999.32
2017-09-05T14:45:58.840Z,999.33
2017-09-05T14:47:09.209Z,999.3
2017-09-05T14:48:19.676Z,999.28
2017-09-05T14:49:30.018Z,999.15
2017-09-05T14:50:40.381Z,999.24